Time;durP1;ratioP1;P1;durP2;ratioP2;P2;SDS_P1;SDS_P2;PMS_P1;PMS_P2;Temp;Humidity;BMP_temperature;BMP_pressure;BME280_temperature;BME280_humidity;BME280_pressure;Samples;Min_cycle;Max_cycle;Signal;HPM_P1;HPM_P2
2022/01/18 00:02:04;;;;;;;48.58;6.40;;;5.60;99.90;;;;;;5085476;28;20044;-76
2022/01/18 00:04:30;;;;;;;58.42;6.15;;;5.60;99.90;;;;;;5089000;28;20059;-77
2022/01/18 00:06:56;;;;;;;50.47;5.65;;;5.70;99.90;;;;;;5086165;28;20492;-77
2022/01/18 00:09:24;;;;;;;47.95;5.53;;;5.50;99.90;;;;;;5086220;28;20043;-77
2022/01/18 00:12:14;;;;;;;49.78;7.10;;;5.50;99.90;;;;;;5082545;28;20052;-77
2022/01/18 00:14:44;;;;;;;46.72;6.45;;;5.50;99.90;;;;;;5100906;27;20059;-77
2022/01/18 00:17:29;;;;;;;40.55;5.72;;;5.50;99.90;;;;;;5083794;28;20036;-77
2022/01/18 00:19:56;;;;;;;42.63;5.65;;;5.40;99.90;;;;;;5087631;28;20581;-77
2022/01/18 00:22:24;;;;;;;55.15;6.32;;;5.40;99.90;;;;;;5086451;28;20520;-77
2022/01/18 00:24:51;;;;;;;57.35;6.53;;;5.40;99.90;;;;;;5075028;28;20048;-77
2022/01/18 00:27:20;;;;;;;58.42;6.80;;;5.40;99.90;;;;;;5084761;28;20055;-77
2022/01/18 00:30:01;;;;;;;49.65;6.10;;;5.40;99.90;;;;;;5100864;27;20038;-77
2022/01/18 00:32:48;;;;;;;41.22;6.78;;;5.40;99.90;;;;;;5087294;28;20492;-77
2022/01/18 00:35:14;;;;;;;60.38;6.97;;;5.40;99.90;;;;;;5086133;28;20519;-77
2022/01/18 00:37:50;;;;;;;44.17;5.93;;;5.40;99.90;;;;;;5066333;28;20044;-76
2022/01/18 00:40:16;;;;;;;50.13;6.07;;;5.40;99.90;;;;;;5067011;28;20067;-77
2022/01/18 00:42:42;;;;;;;56.53;6.35;;;5.40;99.90;;;;;;5079617;28;20044;-77
2022/01/18 00:45:08;;;;;;;48.78;5.72;;;5.40;99.90;;;;;;5066356;28;20047;-77
2022/01/18 00:47:33;;;;;;;44.60;5.35;;;5.40;99.90;;;;;;5074793;28;20036;-77
2022/01/18 00:50:01;;;;;;;54.60;5.75;;;5.40;99.90;;;;;;5072901;28;20121;-77
2022/01/18 00:52:30;;;;;;;58.08;6.07;;;5.40;99.90;;;;;;5093232;28;20115;-77
2022/01/18 00:54:59;;;;;;;52.17;5.50;;;5.40;99.90;;;;;;5086730;28;20067;-77
2022/01/18 00:57:24;;;;;;;61.95;6.78;;;5.40;99.90;;;;;;5070086;28;20043;-77
2022/01/18 00:59:50;;;;;;;55.17;5.70;;;5.40;99.90;;;;;;5094345;28;20048;-76
2022/01/18 01:02:16;;;;;;;55.80;5.45;;;5.40;99.90;;;;;;5085139;28;20410;-77
2022/01/18 01:04:47;;;;;;;51.50;5.95;;;5.40;99.90;;;;;;5067938;28;20054;-76
2022/01/18 01:07:18;;;;;;;41.40;5.43;;;5.30;99.90;;;;;;5100739;27;20404;-77
2022/01/18 01:09:44;;;;;;;53.50;6.63;;;5.30;99.90;;;;;;5087729;28;20523;-77
2022/01/18 01:12:11;;;;;;;40.22;4.90;;;5.30;99.90;;;;;;5074777;28;20028;-77
2022/01/18 01:14:39;;;;;;;48.33;5.55;;;5.30;99.90;;;;;;5094209;28;20122;-77
2022/01/18 01:44:37;;;;;;;42.33;4.80;;;5.10;99.90;;;;;;5006398;28;20052;-77
2022/01/18 01:47:04;;;;;;;33.58;4.70;;;5.00;99.90;;;;;;5004334;28;20049;-77
2022/01/18 01:49:30;;;;;;;45.38;4.72;;;5.00;99.90;;;;;;5022084;28;20414;-77
2022/01/18 01:51:56;;;;;;;57.83;6.05;;;5.00;99.90;;;;;;5029158;28;20072;-77
2022/01/18 01:54:22;;;;;;;41.75;5.07;;;5.00;99.90;;;;;;5027915;28;20043;-78
2022/01/18 01:56:48;;;;;;;47.55;5.15;;;5.10;99.90;;;;;;5044853;28;20037;-77
2022/01/18 01:59:13;;;;;;;42.13;4.13;;;5.10;99.90;;;;;;5035497;28;20033;-77
2022/01/18 02:01:46;;;;;;;39.92;4.22;;;5.20;99.90;;;;;;5046891;28;20051;-78
2022/01/18 02:04:12;;;;;;;42.72;4.70;;;5.20;99.90;;;;;;5045992;28;20033;-78
2022/01/18 02:06:38;;;;;;;45.05;4.15;;;5.20;99.90;;;;;;5042683;28;20045;-77
2022/01/18 02:09:04;;;;;;;45.63;4.65;;;5.20;99.90;;;;;;5027162;28;20044;-78
2022/01/18 02:11:30;;;;;;;41.10;4.40;;;5.20;99.90;;;;;;5025791;28;20048;-77
2022/01/18 02:13:57;;;;;;;41.42;5.53;;;5.20;99.90;;;;;;5047061;28;20565;-77
2022/01/18 02:21:51;;;;;;;38.03;3.83;;;5.30;99.90;;;;;;5062530;28;20057;-77
2022/01/18 02:24:20;;;;;;;41.75;3.67;;;5.30;99.90;;;;;;5027726;28;20076;-77
2022/01/18 02:26:45;;;;;;;29.23;3.72;;;5.30;99.90;;;;;;5027542;28;20037;-77
2022/01/18 02:29:12;;;;;;;27.33;3.45;;;5.30;99.90;;;;;;5050505;28;20585;-77
2022/01/18 02:31:39;;;;;;;35.10;4.22;;;5.30;99.90;;;;;;5029308;28;20052;-77
2022/01/18 02:34:14;;;;;;;28.63;3.67;;;5.30;99.90;;;;;;5032636;28;20131;-77
2022/01/18 02:36:40;;;;;;;41.00;3.67;;;5.40;99.90;;;;;;5085025;28;20040;-77
2022/01/18 02:39:06;;;;;;;27.65;3.70;;;5.40;99.90;;;;;;5078384;28;20043;-77
2022/01/18 02:41:32;;;;;;;33.95;4.68;;;5.40;99.90;;;;;;5090655;28;20058;-77
2022/01/18 02:44:07;;;;;;;36.40;4.13;;;5.30;99.90;;;;;;5064600;28;20417;-77
2022/01/18 02:46:34;;;;;;;34.47;3.40;;;5.30;99.90;;;;;;5078763;28;20054;-77
2022/01/18 02:49:00;;;;;;;28.17;3.00;;;5.30;99.90;;;;;;5084821;28;20044;-77
2022/01/18 02:51:27;;;;;;;27.60;2.88;;;5.30;99.90;;;;;;5079268;28;20096;-76
2022/01/18 02:54:07;;;;;;;32.33;3.53;;;5.30;99.90;;;;;;5075935;28;20085;-77
2022/01/18 02:56:45;;;;;;;26.00;3.13;;;5.30;99.90;;;;;;5078928;28;20068;-77
2022/01/18 02:59:29;;;;;;;24.65;3.58;;;5.20;99.90;;;;;;5061617;28;20969;-77
2022/01/18 03:04:41;;;;;;;30.42;3.47;;;5.20;99.90;;;;;;5085629;28;20185;-78
2022/01/18 03:07:08;;;;;;;30.30;2.70;;;5.20;99.90;;;;;;5085431;28;20036;-78
2022/01/18 03:09:34;;;;;;;29.73;3.17;;;5.20;99.90;;;;;;5103159;28;20120;-77
2022/01/18 03:12:00;;;;;;;37.08;3.40;;;5.20;99.90;;;;;;5104969;28;20130;-77
2022/01/18 03:14:27;;;;;;;29.65;3.00;;;5.20;99.90;;;;;;5087382;28;20063;-77
2022/01/18 03:16:52;;;;;;;27.80;3.00;;;5.20;99.90;;;;;;5071268;28;20044;-77
2022/01/18 03:19:18;;;;;;;27.48;3.42;;;5.20;99.90;;;;;;5073364;28;20412;-77
2022/01/18 03:21:44;;;;;;;29.67;3.42;;;5.30;99.90;;;;;;5085304;28;20044;-77
2022/01/18 03:29:29;;;;;;;31.48;2.63;;;5.30;99.90;;;;;;5102951;27;20545;-77
2022/01/18 03:31:55;;;;;;;27.50;2.72;;;5.20;99.90;;;;;;5087166;28;20105;-77
2022/01/18 03:34:21;;;;;;;26.27;2.58;;;5.30;99.90;;;;;;5068634;28;20051;-76
2022/01/18 03:36:46;;;;;;;32.80;2.88;;;5.30;99.90;;;;;;5071321;28;20036;-77
2022/01/18 03:39:13;;;;;;;28.67;2.95;;;5.30;99.90;;;;;;5088120;28;20043;-77
2022/01/18 03:41:38;;;;;;;26.27;3.55;;;5.30;99.90;;;;;;5067517;28;20047;-78
2022/01/18 03:44:05;;;;;;;29.10;2.83;;;5.30;99.90;;;;;;5067669;28;20093;-77
2022/01/18 03:46:36;;;;;;;29.08;2.53;;;5.30;99.90;;;;;;5103123;28;20070;-77
2022/01/18 03:49:03;;;;;;;18.87;2.37;;;5.30;99.90;;;;;;5091495;28;20058;-77
2022/01/18 03:51:29;;;;;;;22.73;3.45;;;5.30;99.90;;;;;;5070606;28;20043;-78
2022/01/18 03:53:55;;;;;;;18.48;2.53;;;5.30;99.90;;;;;;5086319;28;20510;-77
2022/01/18 03:56:21;;;;;;;19.88;2.67;;;5.30;99.90;;;;;;5071157;28;20043;-78
2022/01/18 03:58:46;;;;;;;19.05;2.35;;;5.30;99.90;;;;;;5086753;28;20797;-77
2022/01/18 04:01:12;;;;;;;27.23;3.03;;;5.30;99.90;;;;;;5075301;28;20032;-77
2022/01/18 04:03:38;;;;;;;34.80;2.60;;;5.40;99.90;;;;;;5087210;28;20463;-78
2022/01/18 04:06:03;;;;;;;20.67;2.28;;;5.40;99.90;;;;;;5076491;28;20040;-77
2022/01/18 04:08:29;;;;;;;14.35;1.92;;;5.40;99.90;;;;;;5090558;28;20051;-77
2022/01/18 04:10:54;;;;;;;29.95;3.53;;;5.50;99.90;;;;;;5094825;28;20048;-77
2022/01/18 04:13:20;;;;;;;22.08;2.10;;;5.50;99.90;;;;;;5092578;28;20079;-77
2022/01/18 04:15:46;;;;;;;22.20;2.15;;;5.50;99.90;;;;;;5071176;28;20145;-78
2022/01/18 04:18:22;;;;;;;19.00;2.17;;;5.60;99.90;;;;;;5086670;28;20078;-76
2022/01/18 04:28:57;;;;;;;19.92;2.28;;;5.60;99.90;;;;;;5085135;28;20055;-77
2022/01/18 04:31:24;;;;;;;19.48;2.33;;;5.60;99.90;;;;;;5086324;28;20406;-75
2022/01/18 04:33:50;;;;;;;19.00;2.60;;;5.70;99.90;;;;;;5089723;28;20044;-75
2022/01/18 04:36:16;;;;;;;20.25;2.10;;;5.70;99.90;;;;;;5106569;27;20051;-75
2022/01/18 04:38:41;;;;;;;16.50;2.38;;;5.70;99.90;;;;;;5086444;28;20044;-75
2022/01/18 04:41:12;;;;;;;19.33;2.15;;;5.70;99.90;;;;;;5068807;28;20197;-77
2022/01/18 04:49:05;;;;;;;16.60;1.88;;;5.70;99.90;;;;;;5070118;28;20576;-75
2022/01/18 04:51:31;;;;;;;19.17;2.70;;;5.70;99.90;;;;;;5084496;28;20104;-74
2022/01/18 04:53:59;;;;;;;18.50;2.85;;;5.70;99.90;;;;;;5088530;28;20497;-74
2022/01/18 04:59:14;;;;;;;16.92;1.98;;;5.70;99.90;;;;;;5058475;28;20044;-75
2022/01/18 05:01:42;;;;;;;14.32;1.90;;;5.70;99.90;;;;;;5070870;28;20488;-75
2022/01/18 05:04:08;;;;;;;18.75;2.63;;;5.70;99.90;;;;;;5090036;28;20047;-75
2022/01/18 05:06:34;;;;;;;15.90;2.20;;;5.60;99.90;;;;;;5084331;28;20520;-74
2022/01/18 05:09:07;;;;;;;14.65;1.67;;;5.60;99.90;;;;;;5086458;28;20480;-75
2022/01/18 05:11:37;;;;;;;16.05;2.05;;;5.60;99.90;;;;;;5086095;28;20040;-75
2022/01/18 05:24:20;;;;;;;;;;;5.60;99.90;;;;;;5082659;28;20074;-75
2022/01/18 05:26:46;;;;;;;14.95;2.17;;;5.60;99.90;;;;;;5087918;28;19924;-75
2022/01/18 05:29:11;;;;;;;13.07;1.88;;;6.10;99.90;;;;;;5075178;28;20385;-75
2022/01/18 05:31:37;;;;;;;15.43;2.90;;;5.50;99.90;;;;;;5083527;28;21288;-75
2022/01/18 05:34:03;;;;;;;12.70;2.30;;;5.50;99.90;;;;;;5085713;28;20050;-75
2022/01/18 05:36:29;;;;;;;14.15;2.15;;;5.50;99.90;;;;;;5069709;28;20063;-74
2022/01/18 05:38:55;;;;;;;16.77;2.08;;;5.50;99.90;;;;;;5066052;28;20036;-75
2022/01/18 05:41:20;;;;;;;16.63;2.40;;;5.50;99.90;;;;;;5077624;28;20038;-75
2022/01/18 05:43:46;;;;;;;16.38;2.33;;;5.50;99.90;;;;;;5068112;28;20119;-75
2022/01/18 05:46:12;;;;;;;19.65;2.47;;;5.60;99.90;;;;;;5086361;28;20399;-75
2022/01/18 05:48:38;;;;;;;16.42;2.42;;;5.60;99.90;;;;;;5067706;28;20082;-74
2022/01/18 05:51:04;;;;;;;20.02;2.50;;;5.60;99.90;;;;;;5083015;28;20040;-75
2022/01/18 05:53:31;;;;;;;20.58;2.35;;;5.50;99.90;;;;;;5081707;28;20044;-75
2022/01/18 05:55:57;;;;;;;18.60;2.90;;;5.60;99.90;;;;;;5069026;28;20048;-75
2022/01/18 05:58:23;;;;;;;13.63;2.45;;;5.60;99.90;;;;;;5102060;27;20040;-75
2022/01/18 06:00:52;;;;;;;14.18;2.60;;;5.60;99.90;;;;;;5090118;28;20099;-75
2022/01/18 06:03:33;;;;;;;22.33;3.08;;;5.50;99.90;;;;;;5066038;28;20742;-75
2022/01/18 06:08:43;;;;;;;14.80;2.55;;;5.60;99.90;;;;;;5089147;28;20523;-75
2022/01/18 06:11:09;;;;;;;20.00;3.22;;;5.50;99.90;;;;;;5069625;28;20078;-75
2022/01/18 06:13:35;;;;;;;15.13;2.95;;;5.50;99.90;;;;;;5059819;28;20738;-75
2022/01/18 06:16:02;;;;;;;25.27;2.83;;;5.70;99.90;;;;;;5062084;28;20066;-75
2022/01/18 06:18:27;;;;;;;28.08;3.40;;;5.50;99.90;;;;;;5044747;28;20048;-75
2022/01/18 06:20:53;;;;;;;30.77;4.28;;;5.50;99.90;;;;;;5037227;28;20046;-74
2022/01/18 06:23:20;;;;;;;18.75;2.95;;;5.50;99.90;;;;;;5067237;28;20032;-74
2022/01/18 06:25:45;;;;;;;18.15;3.13;;;5.50;99.90;;;;;;5068444;28;20052;-74
2022/01/18 06:28:11;;;;;;;18.90;3.00;;;5.50;99.90;;;;;;5051099;28;20117;-74
2022/01/18 06:30:37;;;;;;;20.73;3.92;;;5.50;99.90;;;;;;5052646;28;20619;-74
2022/01/18 06:33:02;;;;;;;22.65;3.47;;;5.50;99.90;;;;;;5055768;28;20050;-74
2022/01/18 06:35:28;;;;;;;19.50;3.50;;;5.50;99.90;;;;;;5062898;28;20087;-74
2022/01/18 06:37:54;;;;;;;27.35;3.92;;;5.50;99.90;;;;;;5051315;28;20041;-74
2022/01/18 06:40:19;;;;;;;19.60;3.55;;;5.50;99.90;;;;;;5040160;28;20044;-74
2022/01/18 06:42:45;;;;;;;15.00;2.97;;;5.50;99.90;;;;;;5063042;28;21313;-74
2022/01/18 06:45:11;;;;;;;19.73;3.33;;;5.50;99.90;;;;;;5075764;28;20051;-74
2022/01/18 06:47:38;;;;;;;18.95;3.15;;;5.50;99.90;;;;;;5072196;28;20480;-74
2022/01/18 06:50:06;;;;;;;19.23;3.88;;;5.50;99.90;;;;;;5054007;28;20051;-74
2022/01/18 06:52:32;;;;;;;24.58;3.70;;;5.50;99.90;;;;;;5062600;28;20070;-74
2022/01/18 06:55:00;;;;;;;15.43;2.95;;;5.40;99.90;;;;;;5064224;28;20771;-73
2022/01/18 06:57:26;;;;;;;20.58;3.13;;;5.40;99.90;;;;;;5055964;28;20043;-74
2022/01/18 06:59:52;;;;;;;14.25;3.15;;;5.40;99.90;;;;;;5052236;28;20864;-73
2022/01/18 07:02:17;;;;;;;18.52;3.25;;;5.40;99.90;;;;;;5048637;28;20167;-73
2022/01/18 07:04:43;;;;;;;16.23;3.30;;;5.40;99.90;;;;;;5070265;28;20717;-73
2022/01/18 07:07:09;;;;;;;15.63;2.78;;;5.40;99.90;;;;;;5073183;28;20044;-74
2022/01/18 07:09:35;;;;;;;18.17;3.28;;;5.50;99.90;;;;;;5071163;28;20084;-74
2022/01/18 07:12:00;;;;;;;17.48;3.03;;;5.40;99.90;;;;;;5053671;28;20052;-74
2022/01/18 07:14:26;;;;;;;17.58;3.33;;;5.40;99.90;;;;;;5073902;28;20032;-74
2022/01/18 07:16:52;;;;;;;19.75;3.50;;;5.40;99.90;;;;;;5079497;28;20028;-74
2022/01/18 07:19:18;;;;;;;15.27;3.70;;;5.40;99.90;;;;;;5082122;28;20450;-74
2022/01/18 07:21:44;;;;;;;24.73;3.80;;;5.40;99.90;;;;;;5081639;28;20056;-74
2022/01/18 07:24:18;;;;;;;19.75;3.38;;;5.40;99.90;;;;;;5082276;28;20528;-74
2022/01/18 07:26:46;;;;;;;21.58;3.90;;;5.40;99.90;;;;;;5081214;28;20040;-74
2022/01/18 07:29:15;;;;;;;20.60;3.63;;;5.40;99.90;;;;;;5082429;28;20077;-74
2022/01/18 07:31:40;;;;;;;13.40;3.38;;;5.40;99.90;;;;;;5082815;28;20136;-75
2022/01/18 07:34:06;;;;;;;20.15;3.80;;;5.40;99.90;;;;;;5079653;28;20556;-74
2022/01/18 07:36:32;;;;;;;17.73;4.13;;;5.40;99.90;;;;;;5062567;28;20044;-73
2022/01/18 07:38:57;;;;;;;16.58;4.35;;;5.30;99.90;;;;;;5078240;28;20827;-74
2022/01/18 07:41:23;;;;;;;21.00;4.57;;;5.20;99.90;;;;;;5063506;28;20097;-74
2022/01/18 07:43:49;;;;;;;16.63;4.15;;;5.10;99.90;;;;;;5078546;28;20508;-74
2022/01/18 07:46:14;;;;;;;20.15;4.05;;;5.10;99.90;;;;;;5079978;28;20051;-74
2022/01/18 07:48:40;;;;;;;17.23;4.20;;;5.10;99.90;;;;;;5060717;28;20252;-75
2022/01/18 07:51:06;;;;;;;20.65;4.05;;;5.10;99.90;;;;;;5081300;28;20500;-74
2022/01/18 07:53:32;;;;;;;19.77;3.95;;;5.10;99.90;;;;;;5083863;28;20052;-74
2022/01/18 07:55:58;;;;;;;18.20;3.65;;;5.00;99.90;;;;;;5066497;28;20044;-74
2022/01/18 07:58:23;;;;;;;12.25;3.92;;;5.00;99.90;;;;;;5081880;28;20047;-74
2022/01/18 08:00:49;;;;;;;14.50;3.60;;;4.90;99.90;;;;;;5065904;28;20063;-74
2022/01/18 08:03:15;;;;;;;13.45;3.60;;;4.90;99.90;;;;;;5068015;28;20478;-74
2022/01/18 08:05:41;;;;;;;18.65;3.58;;;4.90;99.90;;;;;;5086294;28;20400;-74
2022/01/18 08:08:06;;;;;;;13.98;3.38;;;4.90;99.90;;;;;;5083445;28;20618;-74
2022/01/18 08:10:33;;;;;;;10.35;2.90;;;4.90;99.90;;;;;;5082470;28;20074;-74
2022/01/18 08:13:03;;;;;;;14.13;3.45;;;4.90;99.90;;;;;;5082590;28;20036;-74
2022/01/18 08:15:38;;;;;;;16.55;3.80;;;4.90;99.90;;;;;;5078092;28;20100;-75
2022/01/18 08:18:10;;;;;;;13.40;3.60;;;4.90;99.90;;;;;;5064179;28;20044;-74
2022/01/18 08:20:36;;;;;;;15.23;4.03;;;5.00;99.90;;;;;;5080811;28;20059;-74
2022/01/18 08:23:02;;;;;;;15.05;3.80;;;5.10;99.90;;;;;;5082395;28;20044;-74
2022/01/18 08:25:28;;;;;;;18.95;3.63;;;5.20;99.90;;;;;;5081963;28;20504;-75
2022/01/18 08:27:54;;;;;;;20.63;4.18;;;5.30;99.90;;;;;;5080005;28;20534;-74
2022/01/18 08:30:20;;;;;;;19.25;4.63;;;5.20;99.90;;;;;;5066881;28;20036;-74
2022/01/18 08:32:48;;;;;;;21.55;4.53;;;5.20;99.90;;;;;;5083570;28;20129;-74
2022/01/18 08:35:14;;;;;;;17.75;4.10;;;5.30;99.90;;;;;;5080513;28;20055;-73
2022/01/18 08:37:40;;;;;;;29.80;4.63;;;5.30;99.90;;;;;;5083372;28;20044;-74
2022/01/18 08:40:06;;;;;;;27.23;4.70;;;5.30;99.90;;;;;;5076424;28;20039;-75
2022/01/18 08:42:32;;;;;;;20.27;4.18;;;5.30;99.90;;;;;;5066776;28;20048;-74
2022/01/18 08:44:59;;;;;;;18.65;4.05;;;5.30;99.90;;;;;;5084279;28;20051;-74
2022/01/18 08:47:24;;;;;;;20.40;4.72;;;5.40;99.90;;;;;;5099623;27;20055;-74
2022/01/18 08:49:51;;;;;;;12.48;3.83;;;5.40;99.90;;;;;;5086872;28;20508;-74
2022/01/18 08:52:17;;;;;;;17.38;4.72;;;5.40;99.90;;;;;;5083873;28;20078;-74
2022/01/18 08:54:45;;;;;;;22.77;4.22;;;5.40;99.90;;;;;;5085413;28;20579;-74
2022/01/18 08:57:12;;;;;;;22.83;4.18;;;5.50;99.90;;;;;;5066723;28;20040;-74
2022/01/18 08:59:42;;;;;;;25.70;4.30;;;5.50;99.90;;;;;;5081690;28;20618;-74
2022/01/18 09:02:10;;;;;;;24.15;5.05;;;5.50;99.90;;;;;;5063180;28;20537;-74
2022/01/18 09:04:36;;;;;;;22.73;6.53;;;5.60;99.90;;;;;;5078505;28;20721;-74
2022/01/18 09:07:07;;;;;;;34.17;6.03;;;5.60;99.90;;;;;;5082022;28;20051;-74
2022/01/18 09:09:34;;;;;;;25.50;6.00;;;5.60;99.90;;;;;;5079519;28;20047;-74
2022/01/18 09:12:00;;;;;;;27.45;6.45;;;5.70;99.90;;;;;;5083767;28;20040;-74
2022/01/18 09:14:26;;;;;;;28.90;7.88;;;5.70;99.90;;;;;;5084837;28;20106;-74
2022/01/18 09:16:52;;;;;;;24.40;6.50;;;5.80;99.90;;;;;;5081469;28;20131;-74
2022/01/18 09:19:17;;;;;;;25.50;5.97;;;5.80;99.90;;;;;;5064129;28;20040;-74
2022/01/18 09:21:47;;;;;;;31.45;6.68;;;5.90;99.90;;;;;;5081267;28;20585;-73
2022/01/18 09:24:13;;;;;;;26.13;6.70;;;5.90;99.90;;;;;;5063484;28;20044;-73
2022/01/18 09:26:38;;;;;;;23.15;6.95;;;5.90;99.90;;;;;;5096225;27;20539;-73
2022/01/18 09:29:06;;;;;;;26.88;7.32;;;6.00;99.90;;;;;;5082715;28;20245;-74
2022/01/18 09:31:34;;;;;;;24.75;6.82;;;6.00;99.90;;;;;;5070155;28;20089;-73
2022/01/18 09:34:00;;;;;;;26.05;7.40;;;6.00;99.90;;;;;;5076568;28;20047;-73
2022/01/18 09:36:25;;;;;;;30.95;8.63;;;6.10;99.90;;;;;;5077718;28;20047;-73
2022/01/18 09:38:51;;;;;;;17.65;6.35;;;6.10;99.90;;;;;;5081016;28;20847;-73
2022/01/18 09:41:20;;;;;;;22.88;6.47;;;6.20;99.90;;;;;;5077665;28;20089;-73
2022/01/18 09:43:45;;;;;;;27.27;7.07;;;6.20;99.90;;;;;;5081131;28;20035;-73
2022/01/18 09:46:11;;;;;;;21.88;6.70;;;6.20;99.90;;;;;;5080152;28;20435;-73
2022/01/18 09:48:37;;;;;;;26.27;7.03;;;6.30;99.90;;;;;;5064632;28;20465;-74
2022/01/18 09:51:03;;;;;;;25.75;6.57;;;6.30;99.90;;;;;;5081202;28;20032;-73
2022/01/18 09:53:29;;;;;;;20.98;7.00;;;6.30;99.90;;;;;;5081816;28;20055;-73
2022/01/18 09:55:55;;;;;;;24.52;5.90;;;6.30;99.90;;;;;;5081073;28;20055;-73
2022/01/18 09:58:21;;;;;;;17.98;5.18;;;6.30;99.90;;;;;;5062316;28;20043;-73
2022/01/18 10:00:49;;;;;;;21.98;4.55;;;6.30;99.90;;;;;;5063729;28;20048;-73
2022/01/18 10:03:33;;;;;;;17.10;4.03;;;6.30;99.90;;;;;;5062511;28;20039;-73
2022/01/18 10:06:00;;;;;;;21.85;4.30;;;6.30;99.90;;;;;;5060528;28;20404;-73
2022/01/18 10:08:26;;;;;;;19.38;4.75;;;6.30;99.90;;;;;;5058315;28;20365;-74
2022/01/18 10:10:55;;;;;;;15.50;4.28;;;6.30;99.90;;;;;;5060798;28;20055;-73
2022/01/18 10:13:27;;;;;;;17.05;3.78;;;6.40;99.90;;;;;;5079835;28;20497;-74
2022/01/18 10:16:00;;;;;;;19.25;4.18;;;6.50;99.90;;;;;;5062180;28;20056;-74
2022/01/18 10:18:44;;;;;;;13.95;3.95;;;6.60;99.90;;;;;;5080781;28;20697;-73
2022/01/18 10:21:12;;;;;;;14.45;4.50;;;6.50;99.90;;;;;;5061318;28;20056;-73
2022/01/18 10:23:38;;;;;;;19.23;4.32;;;6.60;99.90;;;;;;5075886;28;20043;-73
2022/01/18 10:26:19;;;;;;;18.60;4.20;;;6.60;99.90;;;;;;5077245;28;20290;-74
2022/01/18 10:28:45;;;;;;;16.77;3.42;;;6.60;99.90;;;;;;5092875;28;20506;-73
2022/01/18 10:32:11;;;;;;;11.57;2.97;;;6.60;99.90;;;;;;5078261;28;20107;-73
2022/01/18 10:37:17;;;;;;;12.50;3.53;;;6.60;99.90;;;;;;5075447;28;20071;-73
2022/01/18 10:39:50;;;;;;;18.63;3.40;;;6.60;99.90;;;;;;5060934;28;21227;-73
2022/01/18 10:42:20;;;;;;;13.32;3.55;;;6.70;99.90;;;;;;5059916;28;20047;-73
2022/01/18 10:44:56;;;;;;;17.13;3.13;;;6.70;99.90;;;;;;5077183;28;20683;-72
2022/01/18 10:47:22;;;;;;;10.55;3.38;;;6.80;99.90;;;;;;5078045;28;20886;-73
2022/01/18 10:49:48;;;;;;;17.45;3.80;;;6.80;99.90;;;;;;5075242;28;20047;-73
2022/01/18 10:52:20;;;;;;;18.58;3.17;;;6.80;99.90;;;;;;5059864;28;20113;-73
2022/01/18 10:54:47;;;;;;;;;;;6.80;99.90;;;;;;5063048;28;21641;-74
2022/01/18 10:57:21;;;;;;;12.77;3.30;;;6.90;99.90;;;;;;5062237;28;19928;-73
2022/01/18 10:59:48;;;;;;;14.02;3.30;;;6.90;99.90;;;;;;5079601;28;20501;-73
2022/01/18 11:02:18;;;;;;;11.95;2.75;;;6.80;99.90;;;;;;5078240;28;20051;-73
2022/01/18 11:04:49;;;;;;;12.48;3.30;;;6.80;99.90;;;;;;5093432;28;20048;-73
2022/01/18 11:07:18;;;;;;;13.68;3.13;;;6.80;99.90;;;;;;5060815;28;20504;-73
2022/01/18 11:09:44;;;;;;;12.60;2.83;;;6.80;99.90;;;;;;5061350;28;20075;-74
2022/01/18 11:12:11;;;;;;;13.40;3.10;;;6.70;99.90;;;;;;5079460;28;20081;-74
2022/01/18 11:14:45;;;;;;;10.93;2.67;;;6.70;99.90;;;;;;5079692;28;20465;-73
2022/01/18 11:17:21;;;;;;;13.85;3.28;;;6.80;99.90;;;;;;5078865;28;20113;-73
2022/01/18 11:19:49;;;;;;;13.70;3.03;;;6.70;99.90;;;;;;5062176;28;20294;-73
2022/01/18 11:22:16;;;;;;;15.32;3.45;;;6.80;99.90;;;;;;5062523;28;20048;-73
2022/01/18 11:24:44;;;;;;;12.35;3.40;;;6.80;99.90;;;;;;5062852;28;20040;-73
2022/01/18 11:27:14;;;;;;;15.02;3.28;;;6.80;99.90;;;;;;5079872;28;20100;-73
2022/01/18 11:29:44;;;;;;;11.68;3.85;;;6.80;99.90;;;;;;5081313;28;20044;-73
2022/01/18 11:32:11;;;;;;;17.30;3.23;;;6.90;99.90;;;;;;5095756;28;20699;-73
2022/01/18 11:34:55;;;;;;;14.57;3.60;;;6.80;99.90;;;;;;5080789;28;20061;-73
2022/01/18 11:37:27;;;;;;;16.33;3.40;;;6.70;99.90;;;;;;5097348;28;20055;-73
2022/01/18 11:40:03;;;;;;;13.68;4.15;;;6.70;99.90;;;;;;5061326;28;20423;-74
2022/01/18 11:42:40;;;;;;;11.35;3.47;;;6.80;99.90;;;;;;5080566;28;20377;-73
2022/01/18 11:45:24;;;;;;;18.58;3.78;;;6.80;99.90;;;;;;5062419;28;20533;-73
2022/01/18 11:48:19;;;;;;;19.25;4.55;;;6.80;99.90;;;;;;5094080;27;20085;-74
2022/01/18 11:51:05;;;;;;;16.45;3.90;;;6.80;99.90;;;;;;5083220;28;20044;-73
2022/01/18 11:56:35;;;;;;;14.90;4.63;;;6.70;99.90;;;;;;5101533;27;20055;-73
2022/01/18 11:59:15;;;;;;;15.10;4.75;;;6.80;99.90;;;;;;5098650;27;20055;-72
2022/01/18 12:01:59;;;;;;;13.93;4.70;;;6.70;99.90;;;;;;5082044;28;20044;-74
2022/01/18 12:04:54;;;;;;;13.75;5.40;;;6.70;99.90;;;;;;5083155;28;20048;-73
2022/01/18 12:07:36;;;;;;;13.57;4.03;;;6.70;99.90;;;;;;5082652;28;20052;-73
2022/01/18 12:10:21;;;;;;;18.05;5.10;;;6.70;99.90;;;;;;5083116;28;20056;-73
2022/01/18 12:12:52;;;;;;;16.23;5.35;;;6.60;99.90;;;;;;5084220;28;20082;-74
2022/01/18 12:15:24;;;;;;;18.90;5.75;;;6.70;99.90;;;;;;5081938;28;20267;-73
2022/01/18 12:17:53;;;;;;;21.15;4.60;;;6.60;99.90;;;;;;5064143;28;20059;-73
2022/01/18 12:20:42;;;;;;;18.75;5.65;;;6.60;99.90;;;;;;5083157;28;20046;-73
2022/01/18 12:23:12;;;;;;;20.40;4.68;;;6.60;99.90;;;;;;5080815;28;20083;-73
2022/01/18 12:26:00;;;;;;;18.80;5.57;;;6.70;99.90;;;;;;5099073;28;20591;-73
2022/01/18 12:34:34;;;;;;;19.70;4.78;;;6.70;99.90;;;;;;5082725;28;20192;-73
2022/01/18 12:37:12;;;;;;;16.90;4.95;;;6.70;99.90;;;;;;5080059;28;20044;-73
2022/01/18 12:39:54;;;;;;;16.40;5.03;;;6.70;99.90;;;;;;5083357;28;20056;-74
2022/01/18 12:45:09;;;;;;;16.42;5.47;;;6.70;99.90;;;;;;5084279;28;20063;-73
2022/01/18 12:47:40;;;;;;;20.60;6.40;;;6.70;99.90;;;;;;5069255;28;20044;-73
2022/01/18 12:50:09;;;;;;;19.93;5.60;;;6.70;99.90;;;;;;5066959;28;20039;-73
2022/01/18 12:52:53;;;;;;;16.02;5.93;;;7.10;99.90;;;;;;5086164;28;20725;-73
2022/01/18 12:55:45;;;;;;;21.08;6.40;;;6.70;99.90;;;;;;5086036;28;20119;-74
2022/01/18 12:58:13;;;;;;;24.42;6.43;;;6.80;99.90;;;;;;5084336;28;20074;-73
2022/01/18 13:00:55;;;;;;;21.25;5.97;;;6.80;99.90;;;;;;5085085;28;20137;-74
2022/01/18 13:03:29;;;;;;;25.45;6.97;;;6.90;99.90;;;;;;5085338;28;20147;-73
2022/01/18 13:05:59;;;;;;;20.52;6.90;;;6.90;99.90;;;;;;5079699;28;20516;-74
2022/01/18 13:08:50;;;;;;;21.88;6.20;;;7.00;99.90;;;;;;5064538;28;20075;-73
2022/01/18 13:11:24;;;;;;;19.27;6.47;;;7.00;99.90;;;;;;5060917;28;20132;-74
2022/01/18 13:14:07;;;;;;;21.48;6.70;;;7.00;99.90;;;;;;5063844;28;20043;-74
2022/01/18 13:27:34;;;;;;;23.30;6.50;;;7.00;99.90;;;;;;5080056;28;20055;-73
2022/01/18 13:30:28;;;;;;;21.58;6.55;;;7.00;99.90;;;;;;5063416;28;20055;-74
2022/01/18 13:32:57;;;;;;;19.95;6.80;;;6.90;99.90;;;;;;5077921;28;20060;-74
2022/01/18 13:35:25;;;;;;;23.00;6.55;;;6.90;99.90;;;;;;5081071;28;20056;-73
2022/01/18 13:37:55;;;;;;;17.08;6.55;;;7.00;99.90;;;;;;5079365;28;20186;-74
2022/01/18 13:40:21;;;;;;;25.00;6.15;;;6.90;99.90;;;;;;5081950;28;20405;-74
2022/01/18 13:43:12;;;;;;;21.58;6.05;;;6.90;99.90;;;;;;5064788;28;20040;-73
2022/01/18 13:45:44;;;;;;;17.77;6.20;;;6.90;99.90;;;;;;5066939;28;20043;-74
2022/01/18 13:48:14;;;;;;;20.20;5.80;;;6.90;99.90;;;;;;5080789;28;20845;-73
2022/01/18 13:50:44;;;;;;;16.80;5.50;;;6.80;99.90;;;;;;5062748;28;20119;-72
2022/01/18 13:53:20;;;;;;;17.20;5.57;;;6.80;99.90;;;;;;5078866;28;20048;-73
2022/01/18 13:55:54;;;;;;;17.83;6.20;;;6.80;99.90;;;;;;5075122;28;20067;-73
2022/01/18 13:58:39;;;;;;;22.77;6.20;;;6.70;99.90;;;;;;5075739;28;20050;-73
2022/01/18 14:01:26;;;;;;;16.08;5.70;;;6.70;99.90;;;;;;5068848;28;20055;-74
2022/01/18 14:03:54;;;;;;;19.30;5.25;;;6.70;99.90;;;;;;5052851;28;20040;-73
2022/01/18 14:06:31;;;;;;;20.10;6.15;;;6.60;99.90;;;;;;5067087;28;20051;-74
2022/01/18 14:08:57;;;;;;;18.38;5.95;;;6.60;99.90;;;;;;5079723;27;20080;-73
2022/01/18 14:11:33;;;;;;;18.90;5.78;;;6.50;99.90;;;;;;5079596;28;20135;-74
2022/01/18 14:14:01;;;;;;;18.27;5.85;;;6.40;99.90;;;;;;5073930;28;20055;-73
2022/01/18 14:16:33;;;;;;;17.05;5.82;;;6.40;99.90;;;;;;5046654;28;20204;-74
2022/01/18 14:19:10;;;;;;;19.88;6.32;;;6.40;99.90;;;;;;5063136;28;20077;-73
2022/01/18 14:21:46;;;;;;;21.50;5.57;;;6.40;99.90;;;;;;5048532;28;20047;-74
2022/01/18 14:24:22;;;;;;;17.08;6.13;;;6.40;99.90;;;;;;5048327;28;20139;-74
2022/01/18 14:26:53;;;;;;;22.33;5.50;;;6.30;99.90;;;;;;5061963;28;20131;-74
2022/01/18 14:29:23;;;;;;;;;;;6.30;99.90;;;;;;5064092;28;20768;-74
2022/01/18 14:32:00;;;;;;;19.70;6.05;;;6.30;99.90;;;;;;5065981;28;19939;-74
2022/01/18 14:34:37;;;;;;;17.42;5.70;;;6.30;99.90;;;;;;5060000;28;20040;-73
2022/01/18 14:37:03;;;;;;;21.83;6.65;;;6.30;99.90;;;;;;5078813;28;20618;-74